PILOTS ONLINE: 152    ATC ONLINE: 18

KSNA

John Wayne Airport-Orange County Airport

Location

IATA SNA
City Santa Ana
Country  United States
Latitude 33° 40' 32" N
Longitude 117° 52' 4" W
Elevation 56 ft
Type Large Airport

Map

Weather

METAR
2014/09/03 06:53
KSNA 030653Z AUTO 23003KT 10SM OVC016 23/18 A2981 RMK AO2 SLP094 T02330178 TSNO
TAF
2014/09/03 06:24
TAF KSNA 030520Z 0306/0406 VRB03KT P6SM OVC015 
     FM031700 VRB04KT P6SM SCT017 
     FM031900 23009KT P6SM FEW020 
     FM040100 23006KT P6SM SCT018 
     FM040430 VRB04KT P6SM OVC017

Runways

01L/19R 5700 ft / 150 ft
01R/19L 2887 ft / 75 ft

Outbound flights

Callsign Flying to Pilot ATD/STD ETA Aircraft

Inbound flights

Callsign Flying from Pilot ATD ETA Aircraft